SWA3176 KSRQ-KMCO
Flight info
| Callsign | SWA3176 |
|---|---|
| Flight time | 0h 28m |
| Altitude | 10000 |
| Route | PRICY MINEE MINEE6 |
| Aircraft | B38M/M-SADE2E3GHIJ4J7P2RWZ/LB1D1 |
Departure
| Time | 2026-05-07 19:53 |
|---|---|
| Airport | Sarasota Bradenton International Airport (KSRQ) |
Arrival
| Time | 2026-05-07 20:22 |
|---|---|
| Airport | Orlando International Airport (KMCO) |
| Time | Latitude | Longitude | Altitude | Speed | Heading |
|---|---|---|---|---|---|
| 2026-05-07 19:07 | 27.39034 | -82.55425 | 51 ft | 0 kts | 158° |
| 2026-05-07 19:45 | 27.39044 | -82.55429 | 33 ft | 4 kts | 158° |
| 2026-05-07 19:45 | 27.39069 | -82.55440 | 33 ft | 3 kts | 158° |
| 2026-05-07 19:45 | 27.39089 | -82.55452 | 33 ft | 4 kts | 127° |
| 2026-05-07 19:46 | 27.39093 | -82.55477 | 33 ft | 4 kts | 75° |
| 2026-05-07 19:46 | 27.39089 | -82.55493 | 33 ft | 1 kts | 71° |
| 2026-05-07 19:46 | 27.39088 | -82.55495 | 33 ft | 0 kts | 71° |
| 2026-05-07 19:49 | 27.39089 | -82.55492 | 33 ft | 2 kts | 71° |
| 2026-05-07 19:49 | 27.39099 | -82.55470 | 33 ft | 4 kts | 41° |
| 2026-05-07 19:49 | 27.39132 | -82.55468 | 33 ft | 6 kts | 354° |
| 2026-05-07 19:49 | 27.39185 | -82.55447 | 33 ft | 11 kts | 40° |
| 2026-05-07 19:50 | 27.39266 | -82.55392 | 33 ft | 16 kts | 358° |
| 2026-05-07 19:50 | 27.39368 | -82.55487 | 33 ft | 22 kts | 314° |
| 2026-05-07 19:50 | 27.39474 | -82.55609 | 34 ft | 22 kts | 314° |
| 2026-05-07 19:50 | 27.39587 | -82.55738 | 33 ft | 24 kts | 315° |
| 2026-05-07 19:51 | 27.39709 | -82.55878 | 33 ft | 26 kts | 315° |
| 2026-05-07 19:51 | 27.39840 | -82.56028 | 33 ft | 28 kts | 314° |
| 2026-05-07 19:51 | 27.39973 | -82.56181 | 33 ft | 28 kts | 314° |
| 2026-05-07 19:51 | 27.40112 | -82.56340 | 33 ft | 29 kts | 311° |
| 2026-05-07 19:52 | 27.40257 | -82.56504 | 33 ft | 30 kts | 313° |
| 2026-05-07 19:52 | 27.40403 | -82.56605 | 34 ft | 22 kts | 33° |
| 2026-05-07 19:52 | 27.40364 | -82.56450 | 33 ft | 35 kts | 135° |
| 2026-05-07 19:52 | 27.40013 | -82.56050 | 31 ft | 107 kts | 134° |
| 2026-05-07 19:53 | 27.39350 | -82.55290 | 40 ft | 162 kts | 134° |
| 2026-05-07 19:53 | 27.38543 | -82.54340 | 562 ft | 172 kts | 137° |
| 2026-05-07 19:53 | 27.37724 | -82.53330 | 1259 ft | 176 kts | 139° |
| 2026-05-07 19:53 | 27.36838 | -82.52274 | 1759 ft | 194 kts | 136° |
| 2026-05-07 19:54 | 27.35891 | -82.51122 | 2344 ft | 210 kts | 136° |
| 2026-05-07 19:54 | 27.34837 | -82.49868 | 2789 ft | 229 kts | 137° |
| 2026-05-07 19:54 | 27.33718 | -82.48568 | 3477 ft | 238 kts | 136° |
| 2026-05-07 19:54 | 27.32573 | -82.47111 | 3935 ft | 261 kts | 123° |
| 2026-05-07 19:55 | 27.32065 | -82.45101 | 4392 ft | 280 kts | 87° |
| 2026-05-07 19:55 | 27.32253 | -82.43902 | 4723 ft | 284 kts | 67° |
| 2026-05-07 19:55 | 27.32348 | -82.43645 | 4831 ft | 282 kts | 62° |
| 2026-05-07 19:55 | 27.33596 | -82.42012 | 5709 ft | 278 kts | 30° |
| 2026-05-07 19:56 | 27.35376 | -82.41152 | 6419 ft | 281 kts | 19° |
| 2026-05-07 19:56 | 27.37194 | -82.40281 | 7136 ft | 288 kts | 22° |
| 2026-05-07 19:56 | 27.39023 | -82.39298 | 7837 ft | 293 kts | 24° |
| 2026-05-07 19:56 | 27.40849 | -82.38236 | 8550 ft | 299 kts | 26° |
| 2026-05-07 19:57 | 27.42692 | -82.37118 | 9287 ft | 303 kts | 27° |
| 2026-05-07 19:57 | 27.44554 | -82.35956 | 9724 ft | 309 kts | 27° |
| 2026-05-07 19:57 | 27.46424 | -82.34772 | 9854 ft | 309 kts | 27° |
| 2026-05-07 19:57 | 27.48321 | -82.33561 | 9938 ft | 320 kts | 28° |
| 2026-05-07 19:58 | 27.50275 | -82.32291 | 9947 ft | 327 kts | 28° |
| 2026-05-07 19:58 | 27.52258 | -82.31005 | 9969 ft | 331 kts | 28° |
| 2026-05-07 19:58 | 27.54257 | -82.29714 | 9986 ft | 331 kts | 28° |
| 2026-05-07 19:58 | 27.56236 | -82.28441 | 9980 ft | 331 kts | 28° |
| 2026-05-07 19:59 | 27.58239 | -82.27150 | 9989 ft | 331 kts | 28° |
| 2026-05-07 19:59 | 27.60245 | -82.25861 | 9986 ft | 332 kts | 28° |
| 2026-05-07 19:59 | 27.62249 | -82.24567 | 9983 ft | 331 kts | 28° |
| 2026-05-07 19:59 | 27.64253 | -82.23277 | 9994 ft | 332 kts | 28° |
| 2026-05-07 20:00 | 27.66258 | -82.21985 | 9986 ft | 332 kts | 27° |
| 2026-05-07 20:00 | 27.68266 | -82.20694 | 9980 ft | 332 kts | 28° |
| 2026-05-07 20:00 | 27.70266 | -82.19402 | 9984 ft | 331 kts | 28° |
| 2026-05-07 20:00 | 27.72264 | -82.18109 | 9979 ft | 331 kts | 28° |
| 2026-05-07 20:01 | 27.74245 | -82.16832 | 9970 ft | 331 kts | 27° |
| 2026-05-07 20:01 | 27.76267 | -82.15521 | 9988 ft | 331 kts | 28° |
| 2026-05-07 20:01 | 27.78245 | -82.14247 | 10037 ft | 331 kts | 27° |
| 2026-05-07 20:01 | 27.80249 | -82.12949 | 10049 ft | 332 kts | 28° |
| 2026-05-07 20:02 | 27.82248 | -82.11654 | 10054 ft | 331 kts | 27° |
| 2026-05-07 20:02 | 27.84248 | -82.10364 | 10019 ft | 332 kts | 27° |
| 2026-05-07 20:02 | 27.86251 | -82.09070 | 10030 ft | 332 kts | 27° |
| 2026-05-07 20:02 | 27.88255 | -82.07772 | 10033 ft | 332 kts | 28° |
| 2026-05-07 20:03 | 27.90262 | -82.06473 | 10025 ft | 332 kts | 27° |
| 2026-05-07 20:03 | 27.92262 | -82.05177 | 10041 ft | 332 kts | 27° |
| 2026-05-07 20:03 | 27.94267 | -82.03877 | 10024 ft | 331 kts | 27° |
| 2026-05-07 20:03 | 27.96265 | -82.02581 | 10026 ft | 331 kts | 28° |
| 2026-05-07 20:04 | 27.98259 | -82.01288 | 9940 ft | 328 kts | 28° |
| 2026-05-07 20:04 | 28.00203 | -82.00026 | 9698 ft | 324 kts | 27° |
| 2026-05-07 20:04 | 28.02154 | -81.98759 | 9332 ft | 322 kts | 27° |
| 2026-05-07 20:04 | 28.04077 | -81.97478 | 9081 ft | 318 kts | 33° |
| 2026-05-07 20:05 | 28.05568 | -81.95691 | 9066 ft | 310 kts | 59° |
| 2026-05-07 20:05 | 28.06364 | -81.93430 | 9052 ft | 311 kts | 72° |
| 2026-05-07 20:05 | 28.07038 | -81.91108 | 9034 ft | 310 kts | 71° |
| 2026-05-07 20:05 | 28.07714 | -81.88784 | 9028 ft | 311 kts | 71° |
| 2026-05-07 20:06 | 28.08383 | -81.86458 | 9014 ft | 311 kts | 71° |
| 2026-05-07 20:06 | 28.09056 | -81.84127 | 9018 ft | 310 kts | 72° |
| 2026-05-07 20:06 | 28.09724 | -81.81804 | 9032 ft | 310 kts | 71° |
| 2026-05-07 20:06 | 28.10391 | -81.79483 | 9006 ft | 310 kts | 72° |
| 2026-05-07 20:07 | 28.11057 | -81.77161 | 9012 ft | 310 kts | 72° |
| 2026-05-07 20:07 | 28.11726 | -81.74840 | 9028 ft | 310 kts | 70° |
| 2026-05-07 20:07 | 28.12666 | -81.72655 | 9020 ft | 309 kts | 59° |
| 2026-05-07 20:07 | 28.13712 | -81.70564 | 9008 ft | 309 kts | 60° |
| 2026-05-07 20:08 | 28.14761 | -81.68435 | 9022 ft | 309 kts | 60° |
| 2026-05-07 20:08 | 28.15809 | -81.66301 | 9024 ft | 309 kts | 60° |
| 2026-05-07 20:08 | 28.16851 | -81.64170 | 9023 ft | 309 kts | 60° |
| 2026-05-07 20:08 | 28.17893 | -81.62034 | 9019 ft | 310 kts | 60° |
| 2026-05-07 20:09 | 28.18934 | -81.59892 | 9021 ft | 310 kts | 60° |
| 2026-05-07 20:09 | 28.19968 | -81.57752 | 9026 ft | 310 kts | 60° |
| 2026-05-07 20:09 | 28.21013 | -81.55617 | 9010 ft | 310 kts | 60° |
| 2026-05-07 20:10 | 28.23101 | -81.51334 | 9003 ft | 310 kts | 60° |
| 2026-05-07 20:10 | 28.24142 | -81.49194 | 9020 ft | 310 kts | 60° |
| 2026-05-07 20:10 | 28.25216 | -81.47118 | 8952 ft | 307 kts | 51° |
| 2026-05-07 20:10 | 28.26802 | -81.45556 | 8747 ft | 300 kts | 25° |
| 2026-05-07 20:11 | 28.28750 | -81.44888 | 8509 ft | 289 kts | 3° |
| 2026-05-07 20:11 | 28.30742 | -81.44657 | 8332 ft | 288 kts | 2° |
| 2026-05-07 20:11 | 28.32735 | -81.44423 | 8103 ft | 288 kts | 2° |
| 2026-05-07 20:11 | 28.34728 | -81.44202 | 7890 ft | 286 kts | 2° |
| 2026-05-07 20:12 | 28.36707 | -81.43991 | 7688 ft | 285 kts | 2° |
| 2026-05-07 20:12 | 28.38677 | -81.43785 | 7459 ft | 284 kts | 2° |
| 2026-05-07 20:12 | 28.40606 | -81.43586 | 7255 ft | 280 kts | 2° |
| 2026-05-07 20:12 | 28.42527 | -81.43393 | 7052 ft | 274 kts | 2° |
| 2026-05-07 20:13 | 28.44410 | -81.43201 | 6840 ft | 270 kts | 2° |
| 2026-05-07 20:13 | 28.46267 | -81.43011 | 6639 ft | 265 kts | 2° |
| 2026-05-07 20:13 | 28.48083 | -81.42823 | 6477 ft | 259 kts | 2° |
| 2026-05-07 20:13 | 28.49843 | -81.42638 | 6260 ft | 255 kts | 2° |
| 2026-05-07 20:14 | 28.51629 | -81.42448 | 6066 ft | 252 kts | 1° |
| 2026-05-07 20:14 | 28.53336 | -81.42414 | 5860 ft | 247 kts | 356° |
| 2026-05-07 20:14 | 28.55043 | -81.42417 | 5679 ft | 242 kts | 356° |
| 2026-05-07 20:14 | 28.56710 | -81.42420 | 5471 ft | 237 kts | 356° |
| 2026-05-07 20:15 | 28.58344 | -81.42422 | 5298 ft | 233 kts | 356° |
| 2026-05-07 20:15 | 28.59966 | -81.42414 | 5116 ft | 235 kts | 356° |
| 2026-05-07 20:15 | 28.61598 | -81.42397 | 4954 ft | 235 kts | 357° |
| 2026-05-07 20:15 | 28.63236 | -81.42291 | 4728 ft | 239 kts | 8° |
| 2026-05-07 20:16 | 28.64813 | -81.41657 | 4469 ft | 243 kts | 30° |
| 2026-05-07 20:16 | 28.66031 | -81.40344 | 4266 ft | 242 kts | 55° |
| 2026-05-07 20:16 | 28.66651 | -81.38602 | 4082 ft | 237 kts | 82° |
| 2026-05-07 20:16 | 28.66646 | -81.36724 | 3966 ft | 238 kts | 102° |
| 2026-05-07 20:17 | 28.66063 | -81.34987 | 3816 ft | 235 kts | 125° |
| 2026-05-07 20:17 | 28.64981 | -81.33684 | 3552 ft | 232 kts | 148° |
| 2026-05-07 20:17 | 28.63544 | -81.32935 | 3368 ft | 224 kts | 170° |
| 2026-05-07 20:17 | 28.62025 | -81.32830 | 3226 ft | 218 kts | 184° |
| 2026-05-07 20:18 | 28.60499 | -81.32842 | 3081 ft | 219 kts | 183° |
| 2026-05-07 20:18 | 28.58968 | -81.32839 | 2858 ft | 223 kts | 184° |
| 2026-05-07 20:18 | 28.57413 | -81.32833 | 2538 ft | 221 kts | 184° |
| 2026-05-07 20:18 | 28.55915 | -81.32823 | 2259 ft | 207 kts | 183° |
| 2026-05-07 20:19 | 28.54544 | -81.32814 | 2008 ft | 191 kts | 182° |
| 2026-05-07 20:19 | 28.53254 | -81.32795 | 1701 ft | 177 kts | 184° |
| 2026-05-07 20:19 | 28.52076 | -81.32781 | 1452 ft | 163 kts | 184° |
| 2026-05-07 20:19 | 28.50940 | -81.32770 | 1243 ft | 160 kts | 185° |
| 2026-05-07 20:20 | 28.49862 | -81.32764 | 1150 ft | 153 kts | 186° |
| 2026-05-07 20:20 | 28.48798 | -81.32736 | 984 ft | 151 kts | 184° |
| 2026-05-07 20:20 | 28.47760 | -81.32719 | 720 ft | 148 kts | 185° |
| 2026-05-07 20:20 | 28.46749 | -81.32713 | 517 ft | 145 kts | 183° |
| 2026-05-07 20:21 | 28.45718 | -81.32706 | 304 ft | 150 kts | 181° |
| 2026-05-07 20:21 | 28.44690 | -81.32696 | 121 ft | 147 kts | 181° |
| 2026-05-07 20:21 | 28.43783 | -81.32688 | 102 ft | 102 kts | 179° |
| 2026-05-07 20:21 | 28.43265 | -81.32682 | 104 ft | 64 kts | 179° |
| 2026-05-07 20:22 | 28.42830 | -81.32677 | 104 ft | 61 kts | 177° |
| 2026-05-07 20:22 | 28.42556 | -81.32486 | 103 ft | 43 kts | 120° |
| 2026-05-07 20:22 | 28.42405 | -81.32192 | 108 ft | 43 kts | 121° |
| 2026-05-07 20:22 | 28.42263 | -81.31894 | 102 ft | 43 kts | 97° |
| 2026-05-07 20:23 | 28.42267 | -81.31550 | 99 ft | 44 kts | 89° |
| 2026-05-07 20:23 | 28.42259 | -81.31194 | 97 ft | 46 kts | 97° |
| 2026-05-07 20:23 | 28.42243 | -81.30833 | 99 ft | 46 kts | 86° |
| 2026-05-07 20:23 | 28.42268 | -81.30465 | 97 ft | 47 kts | 86° |
| 2026-05-07 20:24 | 28.42277 | -81.30095 | 97 ft | 47 kts | 89° |
| 2026-05-07 20:24 | 28.42304 | -81.29800 | 98 ft | 26 kts | 31° |
| 2026-05-07 20:24 | 28.42496 | -81.29795 | 99 ft | 32 kts | 359° |
| 2026-05-07 20:24 | 28.42741 | -81.29798 | 97 ft | 38 kts | 359° |
| 2026-05-07 20:25 | 28.43021 | -81.29801 | 98 ft | 43 kts | 359° |
| 2026-05-07 20:25 | 28.43326 | -81.29803 | 98 ft | 42 kts | 359° |
| 2026-05-07 20:25 | 28.43419 | -81.29909 | 99 ft | 19 kts | 257° |
| 2026-05-07 20:25 | 28.43428 | -81.29987 | 97 ft | 3 kts | 285° |
| 2026-05-07 20:26 | 28.43431 | -81.29996 | 98 ft | 0 kts | 284° |